Terminal Aerodrome Forecast
Issued by NWS

Home | Current Version | Previous Version | Text Only | Print | Product List | Glossary On
Versions: 1 2 3 4 5 6 7 8 9 10 11 12 13 14 15 16 17
000
FTUS44 KTSA 041359 AAC
TAFFYV
TAF AMD
KFYV 041359Z 0414/0512 00000KT P6SM FEW250
      TEMPO 0414/0415 6SM BR
     FM041500 16006KT P6SM SKC
     FM041700 18008KT P6SM SCT050 SCT250
     FM050300 16003KT P6SM FEW250=

USA.gov is the U.S. government's official web portal to all federal, state and local government web resources and services.